sensor_id;sensor_type;location;lat;lon;timestamp;P1;durP1;ratioP1;P2;durP2;ratioP2
65684;SDS011;52405;50.844;-1.062;2023-03-04T00:01:49;4.88;;;3.58;;
65684;SDS011;52405;50.844;-1.062;2023-03-04T00:04:15;10.48;;;3.67;;
65684;SDS011;52405;50.844;-1.062;2023-03-04T00:06:41;4.13;;;2.90;;
65684;SDS011;52405;50.844;-1.062;2023-03-04T00:09:07;17.60;;;8.48;;
65684;SDS011;52405;50.844;-1.062;2023-03-04T00:11:32;6.50;;;3.63;;
65684;SDS011;52405;50.844;-1.062;2023-03-04T00:13:58;8.15;;;3.70;;
65684;SDS011;52405;50.844;-1.062;2023-03-04T00:16:24;5.60;;;3.58;;
65684;SDS011;52405;50.844;-1.062;2023-03-04T00:18:55;5.63;;;3.50;;
65684;SDS011;52405;50.844;-1.062;2023-03-04T00:21:22;4.80;;;3.63;;
65684;SDS011;52405;50.844;-1.062;2023-03-04T00:23:48;5.50;;;4.63;;
65684;SDS011;52405;50.844;-1.062;2023-03-04T00:26:14;6.13;;;2.97;;
65684;SDS011;52405;50.844;-1.062;2023-03-04T00:28:39;6.80;;;3.63;;
65684;SDS011;52405;50.844;-1.062;2023-03-04T00:31:05;8.25;;;3.80;;
65684;SDS011;52405;50.844;-1.062;2023-03-04T00:33:31;7.80;;;3.58;;
65684;SDS011;52405;50.844;-1.062;2023-03-04T00:35:57;8.45;;;4.05;;
65684;SDS011;52405;50.844;-1.062;2023-03-04T00:38:25;6.93;;;3.65;;
65684;SDS011;52405;50.844;-1.062;2023-03-04T00:40:53;9.88;;;4.07;;
65684;SDS011;52405;50.844;-1.062;2023-03-04T00:43:23;9.68;;;4.30;;
65684;SDS011;52405;50.844;-1.062;2023-03-04T00:45:48;5.72;;;3.08;;
65684;SDS011;52405;50.844;-1.062;2023-03-04T00:48:14;3.42;;;2.58;;
65684;SDS011;52405;50.844;-1.062;2023-03-04T00:50:42;7.90;;;4.20;;
65684;SDS011;52405;50.844;-1.062;2023-03-04T00:53:10;11.32;;;4.07;;
65684;SDS011;52405;50.844;-1.062;2023-03-04T00:55:36;11.10;;;4.47;;
65684;SDS011;52405;50.844;-1.062;2023-03-04T00:58:03;7.85;;;4.25;;
65684;SDS011;52405;50.844;-1.062;2023-03-04T01:00:28;9.52;;;3.88;;
65684;SDS011;52405;50.844;-1.062;2023-03-04T01:02:56;6.60;;;3.95;;
65684;SDS011;52405;50.844;-1.062;2023-03-04T01:05:21;11.00;;;4.47;;
65684;SDS011;52405;50.844;-1.062;2023-03-04T01:07:47;8.65;;;4.20;;
65684;SDS011;52405;50.844;-1.062;2023-03-04T01:10:13;8.88;;;3.53;;
65684;SDS011;52405;50.844;-1.062;2023-03-04T01:12:39;6.53;;;4.00;;
65684;SDS011;52405;50.844;-1.062;2023-03-04T01:15:06;11.32;;;3.95;;
65684;SDS011;52405;50.844;-1.062;2023-03-04T01:17:36;11.27;;;4.47;;
65684;SDS011;52405;50.844;-1.062;2023-03-04T01:20:04;6.82;;;4.60;;
65684;SDS011;52405;50.844;-1.062;2023-03-04T01:22:35;6.10;;;3.58;;
65684;SDS011;52405;50.844;-1.062;2023-03-04T01:25:03;6.50;;;3.45;;
65684;SDS011;52405;50.844;-1.062;2023-03-04T01:27:30;12.85;;;4.43;;
65684;SDS011;52405;50.844;-1.062;2023-03-04T01:29:55;8.90;;;3.47;;
65684;SDS011;52405;50.844;-1.062;2023-03-04T01:32:20;7.40;;;3.10;;
65684;SDS011;52405;50.844;-1.062;2023-03-04T01:34:48;8.90;;;3.00;;
65684;SDS011;52405;50.844;-1.062;2023-03-04T01:37:13;8.93;;;3.90;;
65684;SDS011;52405;50.844;-1.062;2023-03-04T01:39:39;11.52;;;4.88;;
65684;SDS011;52405;50.844;-1.062;2023-03-04T01:42:11;8.30;;;3.88;;
65684;SDS011;52405;50.844;-1.062;2023-03-04T01:44:44;12.57;;;4.38;;
65684;SDS011;52405;50.844;-1.062;2023-03-04T01:47:11;12.15;;;3.97;;
65684;SDS011;52405;50.844;-1.062;2023-03-04T01:49:37;11.50;;;3.28;;
65684;SDS011;52405;50.844;-1.062;2023-03-04T01:52:04;11.27;;;3.70;;
65684;SDS011;52405;50.844;-1.062;2023-03-04T01:54:34;7.45;;;4.30;;
65684;SDS011;52405;50.844;-1.062;2023-03-04T01:56:59;9.18;;;3.88;;
65684;SDS011;52405;50.844;-1.062;2023-03-04T01:59:25;9.05;;;3.70;;
65684;SDS011;52405;50.844;-1.062;2023-03-04T02:01:55;13.75;;;4.30;;
65684;SDS011;52405;50.844;-1.062;2023-03-04T02:04:30;8.68;;;3.58;;
65684;SDS011;52405;50.844;-1.062;2023-03-04T02:07:02;12.80;;;3.67;;
65684;SDS011;52405;50.844;-1.062;2023-03-04T02:09:30;10.68;;;3.67;;
65684;SDS011;52405;50.844;-1.062;2023-03-04T02:11:57;10.65;;;3.47;;
65684;SDS011;52405;50.844;-1.062;2023-03-04T02:14:23;8.38;;;2.70;;
65684;SDS011;52405;50.844;-1.062;2023-03-04T02:16:51;10.27;;;3.53;;
65684;SDS011;52405;50.844;-1.062;2023-03-04T02:19:26;8.52;;;3.85;;
65684;SDS011;52405;50.844;-1.062;2023-03-04T02:21:54;10.32;;;4.07;;
65684;SDS011;52405;50.844;-1.062;2023-03-04T02:26:57;10.90;;;3.42;;
65684;SDS011;52405;50.844;-1.062;2023-03-04T02:29:23;14.77;;;5.07;;
65684;SDS011;52405;50.844;-1.062;2023-03-04T02:31:49;8.88;;;3.15;;
65684;SDS011;52405;50.844;-1.062;2023-03-04T02:34:20;8.13;;;3.47;;
65684;SDS011;52405;50.844;-1.062;2023-03-04T02:36:48;10.20;;;3.83;;
65684;SDS011;52405;50.844;-1.062;2023-03-04T02:41:43;10.27;;;2.65;;
65684;SDS011;52405;50.844;-1.062;2023-03-04T02:44:19;11.40;;;2.97;;
65684;SDS011;52405;50.844;-1.062;2023-03-04T02:46:49;7.07;;;4.18;;
65684;SDS011;52405;50.844;-1.062;2023-03-04T02:49:16;14.68;;;4.28;;
65684;SDS011;52405;50.844;-1.062;2023-03-04T02:51:42;9.65;;;2.90;;
65684;SDS011;52405;50.844;-1.062;2023-03-04T02:54:17;11.65;;;3.35;;
65684;SDS011;52405;50.844;-1.062;2023-03-04T02:56:51;12.02;;;3.75;;
65684;SDS011;52405;50.844;-1.062;2023-03-04T02:59:18;8.25;;;3.60;;
65684;SDS011;52405;50.844;-1.062;2023-03-04T03:01:45;10.82;;;3.38;;
65684;SDS011;52405;50.844;-1.062;2023-03-04T03:04:13;11.70;;;2.92;;
65684;SDS011;52405;50.844;-1.062;2023-03-04T03:06:39;12.07;;;2.15;;
65684;SDS011;52405;50.844;-1.062;2023-03-04T03:09:05;7.97;;;3.05;;
65684;SDS011;52405;50.844;-1.062;2023-03-04T03:11:31;12.00;;;3.63;;
65684;SDS011;52405;50.844;-1.062;2023-03-04T03:13:57;8.63;;;3.08;;
65684;SDS011;52405;50.844;-1.062;2023-03-04T03:16:22;13.75;;;3.03;;
65684;SDS011;52405;50.844;-1.062;2023-03-04T03:18:51;6.60;;;2.60;;
65684;SDS011;52405;50.844;-1.062;2023-03-04T03:21:16;12.38;;;2.80;;
65684;SDS011;52405;50.844;-1.062;2023-03-04T03:23:42;11.45;;;3.05;;
65684;SDS011;52405;50.844;-1.062;2023-03-04T03:26:09;8.70;;;3.20;;
65684;SDS011;52405;50.844;-1.062;2023-03-04T03:28:35;5.97;;;2.42;;
65684;SDS011;52405;50.844;-1.062;2023-03-04T03:31:03;6.63;;;2.17;;
65684;SDS011;52405;50.844;-1.062;2023-03-04T03:33:29;12.43;;;3.80;;
65684;SDS011;52405;50.844;-1.062;2023-03-04T03:35:57;11.45;;;3.15;;
65684;SDS011;52405;50.844;-1.062;2023-03-04T03:38:25;7.13;;;2.50;;
65684;SDS011;52405;50.844;-1.062;2023-03-04T03:40:52;9.52;;;3.15;;
65684;SDS011;52405;50.844;-1.062;2023-03-04T03:43:21;12.93;;;2.47;;
65684;SDS011;52405;50.844;-1.062;2023-03-04T03:45:46;16.63;;;3.28;;
65684;SDS011;52405;50.844;-1.062;2023-03-04T03:48:15;6.60;;;2.08;;
65684;SDS011;52405;50.844;-1.062;2023-03-04T03:50:43;12.30;;;2.70;;
65684;SDS011;52405;50.844;-1.062;2023-03-04T03:53:09;5.82;;;2.30;;
65684;SDS011;52405;50.844;-1.062;2023-03-04T03:55:35;12.75;;;4.20;;
65684;SDS011;52405;50.844;-1.062;2023-03-04T03:58:00;9.70;;;2.45;;
65684;SDS011;52405;50.844;-1.062;2023-03-04T04:00:26;9.00;;;2.45;;
65684;SDS011;52405;50.844;-1.062;2023-03-04T04:02:52;14.85;;;3.03;;
65684;SDS011;52405;50.844;-1.062;2023-03-04T04:05:19;9.88;;;3.20;;
65684;SDS011;52405;50.844;-1.062;2023-03-04T04:07:47;12.05;;;3.13;;
65684;SDS011;52405;50.844;-1.062;2023-03-04T04:10:13;9.23;;;2.55;;
65684;SDS011;52405;50.844;-1.062;2023-03-04T04:12:38;13.88;;;3.35;;
65684;SDS011;52405;50.844;-1.062;2023-03-04T04:15:04;8.40;;;2.15;;
65684;SDS011;52405;50.844;-1.062;2023-03-04T04:17:30;21.20;;;3.92;;
65684;SDS011;52405;50.844;-1.062;2023-03-04T04:19:58;7.28;;;2.05;;
65684;SDS011;52405;50.844;-1.062;2023-03-04T04:22:23;7.10;;;2.25;;
65684;SDS011;52405;50.844;-1.062;2023-03-04T04:24:51;8.98;;;3.70;;
65684;SDS011;52405;50.844;-1.062;2023-03-04T04:27:17;10.10;;;2.42;;
65684;SDS011;52405;50.844;-1.062;2023-03-04T04:29:44;11.35;;;2.53;;
65684;SDS011;52405;50.844;-1.062;2023-03-04T04:32:10;3.38;;;2.10;;
65684;SDS011;52405;50.844;-1.062;2023-03-04T04:34:39;6.65;;;2.80;;
65684;SDS011;52405;50.844;-1.062;2023-03-04T04:37:05;9.40;;;2.80;;
65684;SDS011;52405;50.844;-1.062;2023-03-04T04:39:30;9.32;;;2.60;;
65684;SDS011;52405;50.844;-1.062;2023-03-04T04:41:55;5.97;;;2.58;;
65684;SDS011;52405;50.844;-1.062;2023-03-04T04:44:21;4.72;;;2.92;;
65684;SDS011;52405;50.844;-1.062;2023-03-04T04:46:48;13.93;;;2.47;;
65684;SDS011;52405;50.844;-1.062;2023-03-04T04:49:14;13.60;;;2.40;;
65684;SDS011;52405;50.844;-1.062;2023-03-04T04:51:39;7.07;;;2.85;;
65684;SDS011;52405;50.844;-1.062;2023-03-04T04:54:05;10.95;;;2.70;;
65684;SDS011;52405;50.844;-1.062;2023-03-04T04:56:32;8.85;;;2.92;;
65684;SDS011;52405;50.844;-1.062;2023-03-04T04:59:02;6.70;;;3.22;;
65684;SDS011;52405;50.844;-1.062;2023-03-04T05:01:28;8.13;;;2.47;;
65684;SDS011;52405;50.844;-1.062;2023-03-04T05:03:54;4.05;;;1.80;;
65684;SDS011;52405;50.844;-1.062;2023-03-04T05:06:20;4.60;;;2.00;;
65684;SDS011;52405;50.844;-1.062;2023-03-04T05:08:47;5.47;;;2.00;;
65684;SDS011;52405;50.844;-1.062;2023-03-04T05:11:15;6.95;;;1.85;;
65684;SDS011;52405;50.844;-1.062;2023-03-04T05:13:41;7.22;;;3.05;;
65684;SDS011;52405;50.844;-1.062;2023-03-04T05:16:07;6.65;;;2.72;;
65684;SDS011;52405;50.844;-1.062;2023-03-04T05:18:36;8.05;;;1.77;;
65684;SDS011;52405;50.844;-1.062;2023-03-04T05:21:02;4.47;;;1.63;;
65684;SDS011;52405;50.844;-1.062;2023-03-04T05:23:28;6.97;;;2.38;;
65684;SDS011;52405;50.844;-1.062;2023-03-04T05:25:59;13.73;;;2.60;;
65684;SDS011;52405;50.844;-1.062;2023-03-04T05:28:27;5.72;;;2.00;;
65684;SDS011;52405;50.844;-1.062;2023-03-04T05:30:53;6.90;;;2.13;;
65684;SDS011;52405;50.844;-1.062;2023-03-04T05:33:18;5.18;;;1.92;;
65684;SDS011;52405;50.844;-1.062;2023-03-04T05:35:47;11.18;;;1.45;;
65684;SDS011;52405;50.844;-1.062;2023-03-04T05:38:16;4.07;;;1.40;;
65684;SDS011;52405;50.844;-1.062;2023-03-04T05:40:43;7.70;;;2.00;;
65684;SDS011;52405;50.844;-1.062;2023-03-04T05:43:09;6.43;;;1.63;;
65684;SDS011;52405;50.844;-1.062;2023-03-04T05:45:35;4.55;;;1.52;;
65684;SDS011;52405;50.844;-1.062;2023-03-04T05:48:02;5.13;;;1.80;;
65684;SDS011;52405;50.844;-1.062;2023-03-04T05:50:28;11.68;;;3.00;;
65684;SDS011;52405;50.844;-1.062;2023-03-04T05:52:53;6.60;;;1.90;;
65684;SDS011;52405;50.844;-1.062;2023-03-04T05:55:19;3.80;;;1.38;;
65684;SDS011;52405;50.844;-1.062;2023-03-04T05:57:44;8.18;;;2.40;;
65684;SDS011;52405;50.844;-1.062;2023-03-04T06:00:10;3.63;;;1.50;;
65684;SDS011;52405;50.844;-1.062;2023-03-04T06:02:40;5.18;;;1.50;;
65684;SDS011;52405;50.844;-1.062;2023-03-04T06:05:06;4.78;;;1.52;;
65684;SDS011;52405;50.844;-1.062;2023-03-04T06:07:33;3.60;;;1.70;;
65684;SDS011;52405;50.844;-1.062;2023-03-04T06:10:01;5.32;;;1.60;;
65684;SDS011;52405;50.844;-1.062;2023-03-04T06:12:26;5.55;;;1.42;;
65684;SDS011;52405;50.844;-1.062;2023-03-04T06:14:54;9.40;;;1.90;;
65684;SDS011;52405;50.844;-1.062;2023-03-04T06:17:19;5.20;;;1.90;;
65684;SDS011;52405;50.844;-1.062;2023-03-04T06:19:45;5.15;;;1.40;;
65684;SDS011;52405;50.844;-1.062;2023-03-04T06:22:11;4.78;;;1.50;;
65684;SDS011;52405;50.844;-1.062;2023-03-04T06:24:39;7.05;;;1.98;;
65684;SDS011;52405;50.844;-1.062;2023-03-04T06:27:04;7.97;;;1.90;;
65684;SDS011;52405;50.844;-1.062;2023-03-04T06:29:29;5.93;;;2.40;;
65684;SDS011;52405;50.844;-1.062;2023-03-04T06:31:55;10.93;;;2.65;;
65684;SDS011;52405;50.844;-1.062;2023-03-04T06:34:21;7.65;;;1.27;;
65684;SDS011;52405;50.844;-1.062;2023-03-04T06:36:46;6.97;;;1.73;;
65684;SDS011;52405;50.844;-1.062;2023-03-04T06:39:14;4.60;;;1.60;;
65684;SDS011;52405;50.844;-1.062;2023-03-04T06:41:42;10.45;;;2.10;;
65684;SDS011;52405;50.844;-1.062;2023-03-04T06:44:10;11.68;;;2.75;;
65684;SDS011;52405;50.844;-1.062;2023-03-04T06:46:35;11.20;;;1.95;;
65684;SDS011;52405;50.844;-1.062;2023-03-04T06:49:01;6.10;;;1.73;;
65684;SDS011;52405;50.844;-1.062;2023-03-04T06:51:27;9.07;;;2.40;;
65684;SDS011;52405;50.844;-1.062;2023-03-04T06:53:55;3.67;;;1.15;;
65684;SDS011;52405;50.844;-1.062;2023-03-04T06:56:21;6.28;;;1.38;;
65684;SDS011;52405;50.844;-1.062;2023-03-04T06:58:48;6.20;;;2.22;;
65684;SDS011;52405;50.844;-1.062;2023-03-04T07:01:19;11.45;;;2.45;;
65684;SDS011;52405;50.844;-1.062;2023-03-04T07:03:44;4.82;;;1.30;;
65684;SDS011;52405;50.844;-1.062;2023-03-04T07:06:11;9.65;;;1.92;;
65684;SDS011;52405;50.844;-1.062;2023-03-04T07:08:37;12.00;;;2.50;;
65684;SDS011;52405;50.844;-1.062;2023-03-04T07:11:03;5.18;;;1.65;;
65684;SDS011;52405;50.844;-1.062;2023-03-04T07:13:29;6.45;;;1.90;;
65684;SDS011;52405;50.844;-1.062;2023-03-04T07:15:55;5.88;;;1.80;;
65684;SDS011;52405;50.844;-1.062;2023-03-04T07:18:21;4.55;;;1.38;;
65684;SDS011;52405;50.844;-1.062;2023-03-04T07:20:50;4.07;;;1.13;;
65684;SDS011;52405;50.844;-1.062;2023-03-04T07:23:18;3.42;;;1.63;;
65684;SDS011;52405;50.844;-1.062;2023-03-04T07:25:44;9.48;;;1.83;;
65684;SDS011;52405;50.844;-1.062;2023-03-04T07:28:10;9.57;;;2.80;;
65684;SDS011;52405;50.844;-1.062;2023-03-04T07:30:35;4.82;;;1.63;;
65684;SDS011;52405;50.844;-1.062;2023-03-04T07:33:01;8.43;;;1.98;;
65684;SDS011;52405;50.844;-1.062;2023-03-04T07:35:26;8.30;;;1.50;;
65684;SDS011;52405;50.844;-1.062;2023-03-04T07:37:54;4.53;;;1.50;;
65684;SDS011;52405;50.844;-1.062;2023-03-04T07:40:19;9.02;;;1.90;;
65684;SDS011;52405;50.844;-1.062;2023-03-04T07:42:51;7.60;;;1.70;;
65684;SDS011;52405;50.844;-1.062;2023-03-04T07:45:18;7.93;;;1.77;;
65684;SDS011;52405;50.844;-1.062;2023-03-04T07:47:43;7.53;;;1.60;;
65684;SDS011;52405;50.844;-1.062;2023-03-04T07:50:12;7.55;;;2.08;;
65684;SDS011;52405;50.844;-1.062;2023-03-04T07:52:42;4.60;;;1.13;;
65684;SDS011;52405;50.844;-1.062;2023-03-04T07:55:09;7.07;;;1.92;;
65684;SDS011;52405;50.844;-1.062;2023-03-04T07:57:40;2.28;;;1.50;;
65684;SDS011;52405;50.844;-1.062;2023-03-04T08:00:09;8.20;;;2.10;;
65684;SDS011;52405;50.844;-1.062;2023-03-04T08:02:37;5.88;;;2.38;;
65684;SDS011;52405;50.844;-1.062;2023-03-04T08:05:03;5.85;;;2.42;;
65684;SDS011;52405;50.844;-1.062;2023-03-04T08:07:29;11.75;;;2.22;;
65684;SDS011;52405;50.844;-1.062;2023-03-04T08:09:54;4.35;;;2.80;;
65684;SDS011;52405;50.844;-1.062;2023-03-04T08:12:20;7.90;;;2.38;;
65684;SDS011;52405;50.844;-1.062;2023-03-04T08:14:48;7.85;;;1.92;;
65684;SDS011;52405;50.844;-1.062;2023-03-04T08:17:14;8.20;;;2.50;;
65684;SDS011;52405;50.844;-1.062;2023-03-04T08:19:39;6.10;;;2.30;;
65684;SDS011;52405;50.844;-1.062;2023-03-04T08:22:05;11.82;;;3.00;;
65684;SDS011;52405;50.844;-1.062;2023-03-04T08:24:31;11.25;;;3.10;;
65684;SDS011;52405;50.844;-1.062;2023-03-04T08:26:57;4.57;;;2.58;;
65684;SDS011;52405;50.844;-1.062;2023-03-04T08:29:23;5.35;;;2.60;;
65684;SDS011;52405;50.844;-1.062;2023-03-04T08:31:52;3.90;;;2.50;;
65684;SDS011;52405;50.844;-1.062;2023-03-04T08:34:19;10.65;;;3.25;;
65684;SDS011;52405;50.844;-1.062;2023-03-04T08:36:46;5.97;;;3.13;;
65684;SDS011;52405;50.844;-1.062;2023-03-04T08:39:12;5.78;;;2.42;;
65684;SDS011;52405;50.844;-1.062;2023-03-04T08:41:40;5.18;;;2.60;;
65684;SDS011;52405;50.844;-1.062;2023-03-04T08:44:06;9.43;;;2.92;;
65684;SDS011;52405;50.844;-1.062;2023-03-04T08:46:34;6.72;;;2.75;;
65684;SDS011;52405;50.844;-1.062;2023-03-04T08:49:00;9.13;;;3.20;;
65684;SDS011;52405;50.844;-1.062;2023-03-04T08:51:26;5.57;;;2.45;;
65684;SDS011;52405;50.844;-1.062;2023-03-04T08:53:52;4.88;;;1.95;;
65684;SDS011;52405;50.844;-1.062;2023-03-04T08:56:17;4.53;;;1.67;;
65684;SDS011;52405;50.844;-1.062;2023-03-04T08:58:45;8.98;;;2.05;;
65684;SDS011;52405;50.844;-1.062;2023-03-04T09:01:14;3.22;;;1.77;;
65684;SDS011;52405;50.844;-1.062;2023-03-04T09:03:44;4.65;;;2.00;;
65684;SDS011;52405;50.844;-1.062;2023-03-04T09:06:11;3.83;;;2.08;;
65684;SDS011;52405;50.844;-1.062;2023-03-04T09:08:39;3.55;;;1.38;;
65684;SDS011;52405;50.844;-1.062;2023-03-04T09:11:04;5.00;;;1.75;;
65684;SDS011;52405;50.844;-1.062;2023-03-04T09:13:33;2.85;;;1.75;;
65684;SDS011;52405;50.844;-1.062;2023-03-04T09:15:59;3.25;;;1.58;;
65684;SDS011;52405;50.844;-1.062;2023-03-04T09:18:25;1.67;;;1.15;;
65684;SDS011;52405;50.844;-1.062;2023-03-04T09:20:51;2.88;;;0.88;;
65684;SDS011;52405;50.844;-1.062;2023-03-04T09:23:19;2.35;;;0.90;;
65684;SDS011;52405;50.844;-1.062;2023-03-04T09:25:45;3.55;;;1.20;;
65684;SDS011;52405;50.844;-1.062;2023-03-04T09:28:13;3.47;;;1.20;;
65684;SDS011;52405;50.844;-1.062;2023-03-04T09:30:42;4.38;;;1.90;;
65684;SDS011;52405;50.844;-1.062;2023-03-04T09:33:08;7.35;;;2.17;;
65684;SDS011;52405;50.844;-1.062;2023-03-04T09:35:36;5.07;;;2.00;;
65684;SDS011;52405;50.844;-1.062;2023-03-04T09:38:02;5.05;;;2.50;;
65684;SDS011;52405;50.844;-1.062;2023-03-04T09:40:38;2.58;;;1.73;;
65684;SDS011;52405;50.844;-1.062;2023-03-04T09:43:27;5.43;;;2.58;;
65684;SDS011;52405;50.844;-1.062;2023-03-04T09:45:56;7.57;;;2.28;;
65684;SDS011;52405;50.844;-1.062;2023-03-04T09:48:27;8.90;;;3.13;;
65684;SDS011;52405;50.844;-1.062;2023-03-04T09:56:31;6.63;;;2.45;;
65684;SDS011;52405;50.844;-1.062;2023-03-04T10:01:30;4.32;;;1.80;;
65684;SDS011;52405;50.844;-1.062;2023-03-04T10:04:02;3.67;;;1.70;;
65684;SDS011;52405;50.844;-1.062;2023-03-04T10:06:38;3.90;;;2.35;;
65684;SDS011;52405;50.844;-1.062;2023-03-04T10:09:39;6.88;;;1.45;;
65684;SDS011;52405;50.844;-1.062;2023-03-04T10:12:20;4.47;;;1.38;;
65684;SDS011;52405;50.844;-1.062;2023-03-04T10:14:57;3.95;;;1.10;;
65684;SDS011;52405;50.844;-1.062;2023-03-04T10:20:00;4.88;;;1.30;;
65684;SDS011;52405;50.844;-1.062;2023-03-04T10:25:13;7.05;;;1.50;;
65684;SDS011;52405;50.844;-1.062;2023-03-04T10:27:42;4.10;;;1.63;;
65684;SDS011;52405;50.844;-1.062;2023-03-04T10:30:58;3.83;;;1.45;;
65684;SDS011;52405;50.844;-1.062;2023-03-04T10:33:13;3.70;;;1.65;;
65684;SDS011;52405;50.844;-1.062;2023-03-04T10:35:47;6.10;;;1.63;;
65684;SDS011;52405;50.844;-1.062;2023-03-04T10:38:35;4.43;;;1.88;;
65684;SDS011;52405;50.844;-1.062;2023-03-04T10:41:11;4.85;;;1.63;;
65684;SDS011;52405;50.844;-1.062;2023-03-04T10:43:38;7.40;;;1.88;;
65684;SDS011;52405;50.844;-1.062;2023-03-04T10:46:04;3.40;;;1.45;;
65684;SDS011;52405;50.844;-1.062;2023-03-04T10:48:30;10.43;;;1.85;;
65684;SDS011;52405;50.844;-1.062;2023-03-04T10:53:42;6.22;;;1.50;;
65684;SDS011;52405;50.844;-1.062;2023-03-04T11:01:53;3.55;;;1.00;;
65684;SDS011;52405;50.844;-1.062;2023-03-04T11:04:21;2.97;;;1.00;;
65684;SDS011;52405;50.844;-1.062;2023-03-04T11:06:51;1.92;;;1.05;;
65684;SDS011;52405;50.844;-1.062;2023-03-04T11:09:21;1.98;;;0.70;;
65684;SDS011;52405;50.844;-1.062;2023-03-04T11:11:49;5.35;;;0.85;;
65684;SDS011;52405;50.844;-1.062;2023-03-04T11:17:01;10.27;;;1.65;;
65684;SDS011;52405;50.844;-1.062;2023-03-04T11:19:40;3.53;;;1.20;;
65684;SDS011;52405;50.844;-1.062;2023-03-04T11:22:09;3.42;;;1.45;;
65684;SDS011;52405;50.844;-1.062;2023-03-04T11:24:39;3.08;;;1.05;;
65684;SDS011;52405;50.844;-1.062;2023-03-04T11:27:12;6.78;;;1.33;;
65684;SDS011;52405;50.844;-1.062;2023-03-04T11:33:04;5.78;;;1.13;;
65684;SDS011;52405;50.844;-1.062;2023-03-04T11:36:02;5.13;;;1.05;;
65684;SDS011;52405;50.844;-1.062;2023-03-04T11:38:42;2.92;;;1.42;;
65684;SDS011;52405;50.844;-1.062;2023-03-04T11:41:15;1.95;;;1.00;;
65684;SDS011;52405;50.844;-1.062;2023-03-04T11:43:45;2.47;;;0.80;;
65684;SDS011;52405;50.844;-1.062;2023-03-04T11:55:00;4.45;;;1.17;;
65684;SDS011;52405;50.844;-1.062;2023-03-04T12:00:51;5.15;;;1.40;;
65684;SDS011;52405;50.844;-1.062;2023-03-04T12:06:10;4.60;;;1.00;;
65684;SDS011;52405;50.844;-1.062;2023-03-04T12:11:33;3.92;;;1.63;;
65684;SDS011;52405;50.844;-1.062;2023-03-04T12:25:33;5.22;;;1.70;;
65684;SDS011;52405;50.844;-1.062;2023-03-04T12:36:15;4.80;;;1.30;;
65684;SDS011;52405;50.844;-1.062;2023-03-04T12:41:31;4.07;;;1.48;;
65684;SDS011;52405;50.844;-1.062;2023-03-04T12:44:16;4.38;;;2.20;;
65684;SDS011;52405;50.844;-1.062;2023-03-04T12:55:03;3.17;;;1.63;;
65684;SDS011;52405;50.844;-1.062;2023-03-04T12:57:35;4.05;;;1.98;;
65684;SDS011;52405;50.844;-1.062;2023-03-04T13:00:19;4.05;;;1.48;;
65684;SDS011;52405;50.844;-1.062;2023-03-04T13:10:45;6.35;;;1.90;;
65684;SDS011;52405;50.844;-1.062;2023-03-04T13:16:01;2.33;;;1.25;;
65684;SDS011;52405;50.844;-1.062;2023-03-04T13:18:32;5.45;;;1.40;;
65684;SDS011;52405;50.844;-1.062;2023-03-04T13:21:17;3.45;;;1.20;;
65684;SDS011;52405;50.844;-1.062;2023-03-04T13:23:50;5.28;;;1.15;;
65684;SDS011;52405;50.844;-1.062;2023-03-04T13:28:53;7.18;;;1.58;;
65684;SDS011;52405;50.844;-1.062;2023-03-04T13:31:55;3.22;;;1.20;;
65684;SDS011;52405;50.844;-1.062;2023-03-04T13:34:42;5.18;;;1.30;;
65684;SDS011;52405;50.844;-1.062;2023-03-04T13:37:26;3.20;;;1.60;;
65684;SDS011;52405;50.844;-1.062;2023-03-04T13:42:51;2.17;;;1.30;;
65684;SDS011;52405;50.844;-1.062;2023-03-04T13:45:52;5.50;;;2.08;;
65684;SDS011;52405;50.844;-1.062;2023-03-04T13:48:22;2.97;;;1.55;;
65684;SDS011;52405;50.844;-1.062;2023-03-04T13:50:51;5.88;;;1.67;;
65684;SDS011;52405;50.844;-1.062;2023-03-04T13:53:20;4.22;;;1.80;;
65684;SDS011;52405;50.844;-1.062;2023-03-04T13:56:26;5.50;;;1.70;;
65684;SDS011;52405;50.844;-1.062;2023-03-04T14:01:33;5.53;;;1.27;;
65684;SDS011;52405;50.844;-1.062;2023-03-04T14:04:01;7.53;;;1.60;;
65684;SDS011;52405;50.844;-1.062;2023-03-04T14:06:40;4.10;;;2.22;;
65684;SDS011;52405;50.844;-1.062;2023-03-04T14:09:14;4.80;;;1.63;;
65684;SDS011;52405;50.844;-1.062;2023-03-04T14:11:48;2.72;;;1.60;;
65684;SDS011;52405;50.844;-1.062;2023-03-04T14:14:17;3.63;;;1.38;;
65684;SDS011;52405;50.844;-1.062;2023-03-04T14:16:57;4.18;;;1.65;;
65684;SDS011;52405;50.844;-1.062;2023-03-04T14:19:35;7.20;;;1.92;;
65684;SDS011;52405;50.844;-1.062;2023-03-04T14:22:20;3.95;;;1.50;;
65684;SDS011;52405;50.844;-1.062;2023-03-04T14:24:55;2.67;;;1.85;;
65684;SDS011;52405;50.844;-1.062;2023-03-04T14:27:23;3.92;;;2.28;;
65684;SDS011;52405;50.844;-1.062;2023-03-04T14:30:01;4.75;;;2.42;;
65684;SDS011;52405;50.844;-1.062;2023-03-04T14:32:32;3.55;;;2.17;;
65684;SDS011;52405;50.844;-1.062;2023-03-04T14:35:05;3.47;;;2.65;;
65684;SDS011;52405;50.844;-1.062;2023-03-04T14:37:43;6.13;;;2.63;;
65684;SDS011;52405;50.844;-1.062;2023-03-04T14:40:34;7.75;;;2.22;;
65684;SDS011;52405;50.844;-1.062;2023-03-04T14:43:12;6.30;;;3.53;;
65684;SDS011;52405;50.844;-1.062;2023-03-04T14:45:44;4.55;;;2.33;;
65684;SDS011;52405;50.844;-1.062;2023-03-04T14:48:32;6.65;;;2.65;;
65684;SDS011;52405;50.844;-1.062;2023-03-04T14:50:59;4.75;;;2.40;;
65684;SDS011;52405;50.844;-1.062;2023-03-04T14:53:28;6.22;;;3.08;;
65684;SDS011;52405;50.844;-1.062;2023-03-04T14:58:33;5.93;;;2.97;;
65684;SDS011;52405;50.844;-1.062;2023-03-04T15:06:35;3.67;;;2.47;;
65684;SDS011;52405;50.844;-1.062;2023-03-04T15:09:15;5.47;;;2.58;;
65684;SDS011;52405;50.844;-1.062;2023-03-04T15:11:50;6.38;;;2.40;;
65684;SDS011;52405;50.844;-1.062;2023-03-04T15:17:35;3.50;;;2.58;;
65684;SDS011;52405;50.844;-1.062;2023-03-04T15:25:12;4.32;;;2.55;;
65684;SDS011;52405;50.844;-1.062;2023-03-04T15:27:43;4.97;;;2.33;;
65684;SDS011;52405;50.844;-1.062;2023-03-04T15:32:52;5.60;;;4.45;;
65684;SDS011;52405;50.844;-1.062;2023-03-04T15:35:21;4.38;;;3.30;;
65684;SDS011;52405;50.844;-1.062;2023-03-04T15:37:49;10.20;;;7.72;;
65684;SDS011;52405;50.844;-1.062;2023-03-04T15:42:55;5.30;;;2.65;;
65684;SDS011;52405;50.844;-1.062;2023-03-04T15:45:24;7.75;;;2.95;;
65684;SDS011;52405;50.844;-1.062;2023-03-04T15:47:56;4.75;;;2.67;;
65684;SDS011;52405;50.844;-1.062;2023-03-04T15:50:25;4.28;;;3.00;;
65684;SDS011;52405;50.844;-1.062;2023-03-04T15:52:55;7.05;;;2.70;;
65684;SDS011;52405;50.844;-1.062;2023-03-04T15:55:24;4.28;;;3.13;;
65684;SDS011;52405;50.844;-1.062;2023-03-04T15:57:51;11.90;;;6.57;;
65684;SDS011;52405;50.844;-1.062;2023-03-04T16:00:22;5.55;;;3.28;;
65684;SDS011;52405;50.844;-1.062;2023-03-04T16:02:48;11.18;;;6.72;;
65684;SDS011;52405;50.844;-1.062;2023-03-04T16:05:14;5.45;;;3.25;;
65684;SDS011;52405;50.844;-1.062;2023-03-04T16:07:41;7.70;;;6.90;;
65684;SDS011;52405;50.844;-1.062;2023-03-04T16:10:19;18.95;;;8.88;;
65684;SDS011;52405;50.844;-1.062;2023-03-04T16:12:51;7.97;;;4.85;;
65684;SDS011;52405;50.844;-1.062;2023-03-04T16:15:19;8.73;;;3.58;;
65684;SDS011;52405;50.844;-1.062;2023-03-04T16:17:50;3.35;;;2.63;;
65684;SDS011;52405;50.844;-1.062;2023-03-04T16:20:20;3.58;;;2.90;;
65684;SDS011;52405;50.844;-1.062;2023-03-04T16:22:51;4.07;;;2.40;;
65684;SDS011;52405;50.844;-1.062;2023-03-04T16:25:23;5.82;;;2.50;;
65684;SDS011;52405;50.844;-1.062;2023-03-04T16:27:52;5.40;;;4.47;;
65684;SDS011;52405;50.844;-1.062;2023-03-04T16:30:24;7.25;;;4.47;;
65684;SDS011;52405;50.844;-1.062;2023-03-04T16:32:51;5.95;;;5.30;;
65684;SDS011;52405;50.844;-1.062;2023-03-04T16:35:17;5.00;;;2.65;;
65684;SDS011;52405;50.844;-1.062;2023-03-04T16:37:44;10.77;;;7.47;;
65684;SDS011;52405;50.844;-1.062;2023-03-04T16:40:16;12.60;;;9.60;;
65684;SDS011;52405;50.844;-1.062;2023-03-04T16:42:46;3.28;;;2.65;;
65684;SDS011;52405;50.844;-1.062;2023-03-04T16:45:16;4.75;;;2.55;;